sensor_id;sensor_type;location;lat;lon;timestamp;pressure;altitude;pressure_sealevel;temperature;humidity
42415;BME280;28058;46.344;17.786;2022-08-21T00:00:25;118336.50;;;-144.97;100.00
42415;BME280;28058;46.344;17.786;2022-08-21T00:03:06;118336.50;;;-144.97;100.00
42415;BME280;28058;46.344;17.786;2022-08-21T00:05:41;118336.50;;;-144.97;100.00
42415;BME280;28058;46.344;17.786;2022-08-21T00:08:08;118336.50;;;-144.97;100.00
42415;BME280;28058;46.344;17.786;2022-08-21T00:10:35;118336.50;;;-144.97;100.00
42415;BME280;28058;46.344;17.786;2022-08-21T00:13:04;118336.50;;;-144.97;100.00
42415;BME280;28058;46.344;17.786;2022-08-21T00:15:33;118336.50;;;-144.97;100.00
42415;BME280;28058;46.344;17.786;2022-08-21T00:18:01;118336.50;;;-144.97;100.00
42415;BME280;28058;46.344;17.786;2022-08-21T00:20:28;118336.50;;;-144.97;100.00
42415;BME280;28058;46.344;17.786;2022-08-21T00:22:54;118336.50;;;-144.97;100.00
42415;BME280;28058;46.344;17.786;2022-08-21T00:25:23;118336.50;;;-144.97;100.00
42415;BME280;28058;46.344;17.786;2022-08-21T00:27:52;118336.50;;;-144.97;100.00
42415;BME280;28058;46.344;17.786;2022-08-21T00:30:21;118336.50;;;-144.97;100.00
42415;BME280;28058;46.344;17.786;2022-08-21T00:32:50;118336.50;;;-144.97;100.00
42415;BME280;28058;46.344;17.786;2022-08-21T00:35:21;118336.50;;;-144.97;100.00
42415;BME280;28058;46.344;17.786;2022-08-21T00:37:48;118336.50;;;-144.97;100.00
42415;BME280;28058;46.344;17.786;2022-08-21T00:40:19;118336.50;;;-144.97;100.00
42415;BME280;28058;46.344;17.786;2022-08-21T00:42:46;118336.50;;;-144.97;100.00
42415;BME280;28058;46.344;17.786;2022-08-21T00:45:19;118336.50;;;-144.97;100.00
42415;BME280;28058;46.344;17.786;2022-08-21T00:47:45;118336.50;;;-144.97;100.00
42415;BME280;28058;46.344;17.786;2022-08-21T00:50:13;118336.50;;;-144.97;100.00
42415;BME280;28058;46.344;17.786;2022-08-21T00:52:50;118336.50;;;-144.97;100.00
42415;BME280;28058;46.344;17.786;2022-08-21T00:55:18;118336.50;;;-144.97;100.00
42415;BME280;28058;46.344;17.786;2022-08-21T00:57:49;118336.50;;;-144.97;100.00
42415;BME280;28058;46.344;17.786;2022-08-21T01:00:24;118336.50;;;-144.97;100.00
42415;BME280;28058;46.344;17.786;2022-08-21T01:02:56;118336.50;;;-144.97;100.00
42415;BME280;28058;46.344;17.786;2022-08-21T01:05:24;118336.50;;;-144.97;100.00
42415;BME280;28058;46.344;17.786;2022-08-21T01:07:51;118336.50;;;-144.97;100.00
42415;BME280;28058;46.344;17.786;2022-08-21T01:10:18;118336.50;;;-144.97;100.00
42415;BME280;28058;46.344;17.786;2022-08-21T01:12:51;118336.50;;;-144.97;100.00
42415;BME280;28058;46.344;17.786;2022-08-21T01:15:19;118336.50;;;-144.97;100.00
42415;BME280;28058;46.344;17.786;2022-08-21T01:17:48;118336.50;;;-144.97;100.00
42415;BME280;28058;46.344;17.786;2022-08-21T01:20:15;118336.50;;;-144.97;100.00
42415;BME280;28058;46.344;17.786;2022-08-21T01:22:43;118336.50;;;-144.97;100.00
42415;BME280;28058;46.344;17.786;2022-08-21T01:25:14;118336.50;;;-144.97;100.00
42415;BME280;28058;46.344;17.786;2022-08-21T01:27:42;118336.50;;;-144.97;100.00
42415;BME280;28058;46.344;17.786;2022-08-21T01:30:20;118336.50;;;-144.97;100.00
42415;BME280;28058;46.344;17.786;2022-08-21T01:32:48;118336.50;;;-144.97;100.00
42415;BME280;28058;46.344;17.786;2022-08-21T01:35:16;118336.50;;;-144.97;100.00
42415;BME280;28058;46.344;17.786;2022-08-21T01:37:44;118336.50;;;-144.97;100.00
42415;BME280;28058;46.344;17.786;2022-08-21T01:40:13;118336.50;;;-144.97;100.00
42415;BME280;28058;46.344;17.786;2022-08-21T01:42:40;118336.50;;;-144.97;100.00
42415;BME280;28058;46.344;17.786;2022-08-21T01:45:08;118336.50;;;-144.97;100.00
42415;BME280;28058;46.344;17.786;2022-08-21T01:47:36;118336.50;;;-144.97;100.00
42415;BME280;28058;46.344;17.786;2022-08-21T01:50:08;118336.50;;;-144.97;100.00
42415;BME280;28058;46.344;17.786;2022-08-21T01:52:35;118336.50;;;-144.97;100.00
42415;BME280;28058;46.344;17.786;2022-08-21T01:55:04;118336.50;;;-144.97;100.00
42415;BME280;28058;46.344;17.786;2022-08-21T01:57:32;118336.50;;;-144.97;100.00
42415;BME280;28058;46.344;17.786;2022-08-21T02:00:00;118336.50;;;-144.97;100.00
42415;BME280;28058;46.344;17.786;2022-08-21T02:02:26;118336.50;;;-144.97;100.00
42415;BME280;28058;46.344;17.786;2022-08-21T02:04:53;118336.50;;;-144.97;100.00
42415;BME280;28058;46.344;17.786;2022-08-21T02:07:20;118336.50;;;-144.97;100.00
42415;BME280;28058;46.344;17.786;2022-08-21T02:09:47;118336.50;;;-144.97;100.00
42415;BME280;28058;46.344;17.786;2022-08-21T02:12:15;118336.50;;;-144.97;100.00
42415;BME280;28058;46.344;17.786;2022-08-21T02:14:41;118336.50;;;-144.97;100.00
42415;BME280;28058;46.344;17.786;2022-08-21T02:17:08;118336.50;;;-144.97;100.00
42415;BME280;28058;46.344;17.786;2022-08-21T02:19:37;118336.50;;;-144.97;100.00
42415;BME280;28058;46.344;17.786;2022-08-21T02:22:10;118336.50;;;-144.97;100.00
42415;BME280;28058;46.344;17.786;2022-08-21T02:24:38;118336.50;;;-144.97;100.00
42415;BME280;28058;46.344;17.786;2022-08-21T02:27:21;118336.50;;;-144.97;100.00
42415;BME280;28058;46.344;17.786;2022-08-21T02:29:54;118336.50;;;-144.97;100.00
42415;BME280;28058;46.344;17.786;2022-08-21T02:32:22;118336.50;;;-144.97;100.00
42415;BME280;28058;46.344;17.786;2022-08-21T02:34:49;118336.50;;;-144.97;100.00
42415;BME280;28058;46.344;17.786;2022-08-21T02:37:16;118336.50;;;-144.97;100.00
42415;BME280;28058;46.344;17.786;2022-08-21T02:39:43;118336.50;;;-144.97;100.00
42415;BME280;28058;46.344;17.786;2022-08-21T02:42:10;118336.50;;;-144.97;100.00
42415;BME280;28058;46.344;17.786;2022-08-21T02:44:36;118336.50;;;-144.97;100.00
42415;BME280;28058;46.344;17.786;2022-08-21T02:47:03;118336.50;;;-144.97;100.00
42415;BME280;28058;46.344;17.786;2022-08-21T02:49:30;118336.50;;;-144.97;100.00
42415;BME280;28058;46.344;17.786;2022-08-21T02:51:57;118336.50;;;-144.97;100.00
42415;BME280;28058;46.344;17.786;2022-08-21T02:54:24;118336.50;;;-144.97;100.00
42415;BME280;28058;46.344;17.786;2022-08-21T02:56:51;118336.50;;;-144.97;100.00
42415;BME280;28058;46.344;17.786;2022-08-21T02:59:18;118336.50;;;-144.97;100.00
42415;BME280;28058;46.344;17.786;2022-08-21T03:01:45;118336.50;;;-144.97;100.00
42415;BME280;28058;46.344;17.786;2022-08-21T03:04:12;118336.50;;;-144.97;100.00
42415;BME280;28058;46.344;17.786;2022-08-21T03:06:39;118336.50;;;-144.97;100.00
42415;BME280;28058;46.344;17.786;2022-08-21T03:09:05;118336.50;;;-144.97;100.00
42415;BME280;28058;46.344;17.786;2022-08-21T03:11:32;118336.50;;;-144.97;100.00
42415;BME280;28058;46.344;17.786;2022-08-21T03:13:59;118336.50;;;-144.97;100.00
42415;BME280;28058;46.344;17.786;2022-08-21T03:16:26;118336.50;;;-144.97;100.00
42415;BME280;28058;46.344;17.786;2022-08-21T03:18:59;118336.50;;;-144.97;100.00
42415;BME280;28058;46.344;17.786;2022-08-21T03:21:26;118336.50;;;-144.97;100.00
42415;BME280;28058;46.344;17.786;2022-08-21T03:23:55;118336.50;;;-144.97;100.00
42415;BME280;28058;46.344;17.786;2022-08-21T03:26:22;118336.50;;;-144.97;100.00
42415;BME280;28058;46.344;17.786;2022-08-21T03:28:48;118336.50;;;-144.97;100.00
42415;BME280;28058;46.344;17.786;2022-08-21T03:31:17;118336.50;;;-144.97;100.00
42415;BME280;28058;46.344;17.786;2022-08-21T03:33:44;118336.50;;;-144.97;100.00
42415;BME280;28058;46.344;17.786;2022-08-21T03:36:11;118336.50;;;-144.97;100.00
42415;BME280;28058;46.344;17.786;2022-08-21T03:38:38;118336.50;;;-144.97;100.00
42415;BME280;28058;46.344;17.786;2022-08-21T03:41:06;118336.50;;;-144.97;100.00
42415;BME280;28058;46.344;17.786;2022-08-21T03:43:34;118336.50;;;-144.97;100.00
42415;BME280;28058;46.344;17.786;2022-08-21T03:46:04;118336.50;;;-144.97;100.00
42415;BME280;28058;46.344;17.786;2022-08-21T03:48:32;118336.50;;;-144.97;100.00
42415;BME280;28058;46.344;17.786;2022-08-21T03:51:00;118336.50;;;-144.97;100.00
42415;BME280;28058;46.344;17.786;2022-08-21T03:53:27;118336.50;;;-144.97;100.00
42415;BME280;28058;46.344;17.786;2022-08-21T03:55:54;118336.50;;;-144.97;100.00
42415;BME280;28058;46.344;17.786;2022-08-21T03:58:23;118336.50;;;-144.97;100.00
42415;BME280;28058;46.344;17.786;2022-08-21T04:00:52;118336.50;;;-144.97;100.00
42415;BME280;28058;46.344;17.786;2022-08-21T04:03:21;118336.50;;;-144.97;100.00
42415;BME280;28058;46.344;17.786;2022-08-21T04:05:49;118336.50;;;-144.97;100.00
42415;BME280;28058;46.344;17.786;2022-08-21T04:08:16;118336.50;;;-144.97;100.00
42415;BME280;28058;46.344;17.786;2022-08-21T04:10:48;118336.50;;;-144.97;100.00
42415;BME280;28058;46.344;17.786;2022-08-21T04:13:17;118336.50;;;-144.97;100.00
42415;BME280;28058;46.344;17.786;2022-08-21T04:15:44;118336.50;;;-144.97;100.00
42415;BME280;28058;46.344;17.786;2022-08-21T04:18:11;118336.50;;;-144.97;100.00
42415;BME280;28058;46.344;17.786;2022-08-21T04:20:39;118336.50;;;-144.97;100.00
42415;BME280;28058;46.344;17.786;2022-08-21T04:23:10;118336.50;;;-144.97;100.00
42415;BME280;28058;46.344;17.786;2022-08-21T04:25:50;118336.50;;;-144.97;100.00
42415;BME280;28058;46.344;17.786;2022-08-21T04:28:17;118336.50;;;-144.97;100.00
42415;BME280;28058;46.344;17.786;2022-08-21T04:30:44;118336.50;;;-144.97;100.00
42415;BME280;28058;46.344;17.786;2022-08-21T04:33:12;118336.50;;;-144.97;100.00
42415;BME280;28058;46.344;17.786;2022-08-21T04:35:39;118336.50;;;-144.97;100.00
42415;BME280;28058;46.344;17.786;2022-08-21T04:38:06;118336.50;;;-144.97;100.00
42415;BME280;28058;46.344;17.786;2022-08-21T04:40:33;118336.50;;;-144.97;100.00
42415;BME280;28058;46.344;17.786;2022-08-21T04:43:07;118336.50;;;-144.97;100.00
42415;BME280;28058;46.344;17.786;2022-08-21T04:45:40;118336.50;;;-144.97;100.00
42415;BME280;28058;46.344;17.786;2022-08-21T04:48:09;118336.50;;;-144.97;100.00
42415;BME280;28058;46.344;17.786;2022-08-21T04:53:18;118336.50;;;-144.97;100.00
42415;BME280;28058;46.344;17.786;2022-08-21T04:55:46;118336.50;;;-144.97;100.00
42415;BME280;28058;46.344;17.786;2022-08-21T04:58:17;118336.50;;;-144.97;100.00
42415;BME280;28058;46.344;17.786;2022-08-21T05:00:45;118336.50;;;-144.97;100.00
42415;BME280;28058;46.344;17.786;2022-08-21T05:03:14;118336.50;;;-144.97;100.00
42415;BME280;28058;46.344;17.786;2022-08-21T05:05:43;118336.50;;;-144.97;100.00
42415;BME280;28058;46.344;17.786;2022-08-21T05:08:13;118336.50;;;-144.97;100.00
42415;BME280;28058;46.344;17.786;2022-08-21T05:10:42;118336.50;;;-144.97;100.00
42415;BME280;28058;46.344;17.786;2022-08-21T05:13:13;118336.50;;;-144.97;100.00
42415;BME280;28058;46.344;17.786;2022-08-21T05:15:40;118336.50;;;-144.97;100.00
42415;BME280;28058;46.344;17.786;2022-08-21T05:18:08;118336.50;;;-144.97;100.00
42415;BME280;28058;46.344;17.786;2022-08-21T05:20:35;118336.50;;;-144.97;100.00
42415;BME280;28058;46.344;17.786;2022-08-21T05:23:12;118336.50;;;-144.97;100.00
42415;BME280;28058;46.344;17.786;2022-08-21T05:25:40;118336.50;;;-144.97;100.00
42415;BME280;28058;46.344;17.786;2022-08-21T05:28:07;118336.50;;;-144.97;100.00
42415;BME280;28058;46.344;17.786;2022-08-21T05:30:34;118336.50;;;-144.97;100.00
42415;BME280;28058;46.344;17.786;2022-08-21T05:33:03;118336.50;;;-144.97;100.00
42415;BME280;28058;46.344;17.786;2022-08-21T05:35:31;118336.50;;;-144.97;100.00
42415;BME280;28058;46.344;17.786;2022-08-21T05:38:00;118336.50;;;-144.97;100.00
42415;BME280;28058;46.344;17.786;2022-08-21T05:40:27;118336.50;;;-144.97;100.00
42415;BME280;28058;46.344;17.786;2022-08-21T05:42:55;118336.50;;;-144.97;100.00
42415;BME280;28058;46.344;17.786;2022-08-21T05:45:25;118336.50;;;-144.97;100.00
42415;BME280;28058;46.344;17.786;2022-08-21T05:48:21;118336.50;;;-144.97;100.00
42415;BME280;28058;46.344;17.786;2022-08-21T05:50:49;118336.50;;;-144.97;100.00
42415;BME280;28058;46.344;17.786;2022-08-21T05:53:19;118336.50;;;-144.97;100.00
42415;BME280;28058;46.344;17.786;2022-08-21T05:55:47;118336.50;;;-144.97;100.00
42415;BME280;28058;46.344;17.786;2022-08-21T05:58:16;118336.50;;;-144.97;100.00
42415;BME280;28058;46.344;17.786;2022-08-21T06:00:46;118336.50;;;-144.97;100.00
42415;BME280;28058;46.344;17.786;2022-08-21T06:03:26;118336.50;;;-144.97;100.00
42415;BME280;28058;46.344;17.786;2022-08-21T06:05:54;118336.50;;;-144.97;100.00
42415;BME280;28058;46.344;17.786;2022-08-21T06:08:22;118336.50;;;-144.97;100.00
42415;BME280;28058;46.344;17.786;2022-08-21T06:10:51;118336.50;;;-144.97;100.00
42415;BME280;28058;46.344;17.786;2022-08-21T06:13:19;118336.50;;;-144.97;100.00
42415;BME280;28058;46.344;17.786;2022-08-21T06:15:47;118336.50;;;-144.97;100.00
42415;BME280;28058;46.344;17.786;2022-08-21T06:18:14;118336.50;;;-144.97;100.00
42415;BME280;28058;46.344;17.786;2022-08-21T06:20:41;118336.50;;;-144.97;100.00
42415;BME280;28058;46.344;17.786;2022-08-21T06:23:09;118336.50;;;-144.97;100.00
42415;BME280;28058;46.344;17.786;2022-08-21T06:25:36;118336.50;;;-144.97;100.00
42415;BME280;28058;46.344;17.786;2022-08-21T06:28:06;118336.50;;;-144.97;100.00
42415;BME280;28058;46.344;17.786;2022-08-21T06:30:35;118336.50;;;-144.97;100.00
42415;BME280;28058;46.344;17.786;2022-08-21T06:33:03;118336.50;;;-144.97;100.00
42415;BME280;28058;46.344;17.786;2022-08-21T06:35:30;118336.50;;;-144.97;100.00
42415;BME280;28058;46.344;17.786;2022-08-21T06:37:57;118336.50;;;-144.97;100.00
42415;BME280;28058;46.344;17.786;2022-08-21T06:40:28;118336.50;;;-144.97;100.00
42415;BME280;28058;46.344;17.786;2022-08-21T06:42:56;118336.50;;;-144.97;100.00
42415;BME280;28058;46.344;17.786;2022-08-21T06:45:24;118336.50;;;-144.97;100.00
42415;BME280;28058;46.344;17.786;2022-08-21T06:47:57;118336.50;;;-144.97;100.00
42415;BME280;28058;46.344;17.786;2022-08-21T06:50:24;118336.50;;;-144.97;100.00
42415;BME280;28058;46.344;17.786;2022-08-21T06:53:09;118336.50;;;-144.97;100.00
42415;BME280;28058;46.344;17.786;2022-08-21T06:55:37;118336.50;;;-144.97;100.00
42415;BME280;28058;46.344;17.786;2022-08-21T06:58:04;118336.50;;;-144.97;100.00
42415;BME280;28058;46.344;17.786;2022-08-21T07:00:32;118336.50;;;-144.97;100.00
42415;BME280;28058;46.344;17.786;2022-08-21T07:03:00;118336.50;;;-144.97;100.00
42415;BME280;28058;46.344;17.786;2022-08-21T07:05:30;118336.50;;;-144.97;100.00
42415;BME280;28058;46.344;17.786;2022-08-21T07:07:57;118336.50;;;-144.97;100.00
42415;BME280;28058;46.344;17.786;2022-08-21T07:10:25;118336.50;;;-144.97;100.00
42415;BME280;28058;46.344;17.786;2022-08-21T07:12:53;118336.50;;;-144.97;100.00
42415;BME280;28058;46.344;17.786;2022-08-21T07:15:30;118336.50;;;-144.97;98.87
42415;BME280;28058;46.344;17.786;2022-08-21T07:17:58;118336.50;;;-144.97;97.91
42415;BME280;28058;46.344;17.786;2022-08-21T07:20:27;118336.50;;;-144.97;97.56
42415;BME280;28058;46.344;17.786;2022-08-21T07:22:56;118336.50;;;-144.97;96.93
42415;BME280;28058;46.344;17.786;2022-08-21T07:25:24;118336.50;;;-144.97;96.58
42415;BME280;28058;46.344;17.786;2022-08-21T07:27:51;118336.50;;;-144.97;96.78
42415;BME280;28058;46.344;17.786;2022-08-21T07:30:18;118336.50;;;-144.97;96.30
42415;BME280;28058;46.344;17.786;2022-08-21T07:32:45;118336.50;;;-144.97;96.60
42415;BME280;28058;46.344;17.786;2022-08-21T07:35:17;118336.50;;;-144.97;97.63
42415;BME280;28058;46.344;17.786;2022-08-21T07:37:45;118336.50;;;-144.97;98.38
42415;BME280;28058;46.344;17.786;2022-08-21T07:40:13;118336.50;;;-144.97;98.02
42415;BME280;28058;46.344;17.786;2022-08-21T07:42:45;118336.50;;;-144.97;98.58
42415;BME280;28058;46.344;17.786;2022-08-21T07:45:13;118336.50;;;-144.97;99.68
42415;BME280;28058;46.344;17.786;2022-08-21T07:47:40;118336.50;;;-144.97;99.38
42415;BME280;28058;46.344;17.786;2022-08-21T07:50:11;118336.50;;;-144.97;99.24
42415;BME280;28058;46.344;17.786;2022-08-21T07:52:39;118336.50;;;-144.97;99.34
42415;BME280;28058;46.344;17.786;2022-08-21T07:55:09;118336.50;;;-144.97;99.76
42415;BME280;28058;46.344;17.786;2022-08-21T07:57:38;118336.50;;;-144.97;99.55
42415;BME280;28058;46.344;17.786;2022-08-21T08:00:08;118336.50;;;-144.97;99.79
42415;BME280;28058;46.344;17.786;2022-08-21T08:02:36;118336.50;;;-144.97;100.00
42415;BME280;28058;46.344;17.786;2022-08-21T08:05:04;118336.50;;;-144.97;100.00
42415;BME280;28058;46.344;17.786;2022-08-21T08:07:31;118336.50;;;-144.97;100.00
42415;BME280;28058;46.344;17.786;2022-08-21T08:09:58;118336.50;;;-144.97;99.53
42415;BME280;28058;46.344;17.786;2022-08-21T08:12:25;118336.50;;;-144.97;96.65
42415;BME280;28058;46.344;17.786;2022-08-21T08:14:57;118336.50;;;-144.97;97.35
42415;BME280;28058;46.344;17.786;2022-08-21T08:17:24;118336.50;;;-144.97;97.70
42415;BME280;28058;46.344;17.786;2022-08-21T08:19:52;118336.50;;;-144.97;98.33
42415;BME280;28058;46.344;17.786;2022-08-21T08:22:21;118336.50;;;-144.97;97.65
42415;BME280;28058;46.344;17.786;2022-08-21T08:24:51;118336.50;;;-144.97;98.04
42415;BME280;28058;46.344;17.786;2022-08-21T08:27:19;118336.50;;;-144.97;96.99
42415;BME280;28058;46.344;17.786;2022-08-21T08:29:47;118336.50;;;-144.97;96.96
42415;BME280;28058;46.344;17.786;2022-08-21T08:32:14;118336.50;;;-144.97;97.54
42415;BME280;28058;46.344;17.786;2022-08-21T08:34:41;118336.50;;;-144.97;97.92
42415;BME280;28058;46.344;17.786;2022-08-21T08:37:09;118336.50;;;-144.97;97.73
42415;BME280;28058;46.344;17.786;2022-08-21T08:39:36;118336.50;;;-144.97;97.46
42415;BME280;28058;46.344;17.786;2022-08-21T08:42:27;118336.50;;;-144.97;96.22
42415;BME280;28058;46.344;17.786;2022-08-21T08:47:36;118336.50;;;-144.97;95.23
42415;BME280;28058;46.344;17.786;2022-08-21T08:50:08;118336.50;;;-144.97;96.18
42415;BME280;28058;46.344;17.786;2022-08-21T08:52:43;118336.50;;;-144.97;95.80
42415;BME280;28058;46.344;17.786;2022-08-21T08:55:21;118336.50;;;-144.97;97.35
42415;BME280;28058;46.344;17.786;2022-08-21T08:57:53;118336.50;;;-144.97;96.31
42415;BME280;28058;46.344;17.786;2022-08-21T09:00:23;118336.50;;;-144.97;95.94
42415;BME280;28058;46.344;17.786;2022-08-21T09:02:55;118336.50;;;-144.97;95.95
42415;BME280;28058;46.344;17.786;2022-08-21T09:05:27;118336.50;;;-144.97;96.24
42415;BME280;28058;46.344;17.786;2022-08-21T09:08:26;118336.50;;;-144.97;94.68
42415;BME280;28058;46.344;17.786;2022-08-21T09:11:04;118336.50;;;-144.97;93.08
42415;BME280;28058;46.344;17.786;2022-08-21T09:19:35;118336.50;;;-144.97;95.52
42415;BME280;28058;46.344;17.786;2022-08-21T09:22:09;118336.50;;;-144.97;94.55
42415;BME280;28058;46.344;17.786;2022-08-21T09:24:50;118336.50;;;-144.97;95.60
42415;BME280;28058;46.344;17.786;2022-08-21T09:27:20;118336.50;;;-144.97;95.79
42415;BME280;28058;46.344;17.786;2022-08-21T09:29:51;118336.50;;;-144.97;94.18
42415;BME280;28058;46.344;17.786;2022-08-21T09:32:21;118336.50;;;-144.97;95.21
42415;BME280;28058;46.344;17.786;2022-08-21T09:38:05;118336.50;;;-144.97;91.31
42415;BME280;28058;46.344;17.786;2022-08-21T09:40:42;118336.50;;;-144.97;90.68
42415;BME280;28058;46.344;17.786;2022-08-21T09:43:18;118336.50;;;-144.97;89.66
42415;BME280;28058;46.344;17.786;2022-08-21T09:45:48;118336.50;;;-144.97;88.26
42415;BME280;28058;46.344;17.786;2022-08-21T09:48:19;118336.50;;;-144.97;88.11
42415;BME280;28058;46.344;17.786;2022-08-21T09:50:47;118336.50;;;-144.97;89.25
42415;BME280;28058;46.344;17.786;2022-08-21T09:53:21;118336.50;;;-144.97;88.11
42415;BME280;28058;46.344;17.786;2022-08-21T09:56:39;118336.50;;;-144.97;86.79
42415;BME280;28058;46.344;17.786;2022-08-21T09:58:59;118336.50;;;-144.97;87.27
42415;BME280;28058;46.344;17.786;2022-08-21T10:01:26;118336.50;;;-144.97;87.21
42415;BME280;28058;46.344;17.786;2022-08-21T10:04:09;118336.50;;;-144.97;85.99
42415;BME280;28058;46.344;17.786;2022-08-21T10:06:37;118336.50;;;-144.97;83.68
42415;BME280;28058;46.344;17.786;2022-08-21T10:09:05;118336.50;;;-144.97;83.40
42415;BME280;28058;46.344;17.786;2022-08-21T10:11:33;118336.50;;;-144.97;81.34
42415;BME280;28058;46.344;17.786;2022-08-21T10:14:22;118336.50;;;-144.97;83.00
42415;BME280;28058;46.344;17.786;2022-08-21T10:19:45;118336.50;;;-144.97;80.01
42415;BME280;28058;46.344;17.786;2022-08-21T10:22:27;118336.50;;;-144.97;80.28
42415;BME280;28058;46.344;17.786;2022-08-21T10:31:00;118336.50;;;-144.97;77.98
42415;BME280;28058;46.344;17.786;2022-08-21T10:33:42;118336.50;;;-144.97;77.61
42415;BME280;28058;46.344;17.786;2022-08-21T10:36:21;118336.50;;;-144.97;77.50
42415;BME280;28058;46.344;17.786;2022-08-21T10:39:03;118336.50;;;-144.97;78.22
42415;BME280;28058;46.344;17.786;2022-08-21T10:44:39;118336.50;;;-144.97;79.16
42415;BME280;28058;46.344;17.786;2022-08-21T10:55:16;118336.50;;;-144.97;83.44
42415;BME280;28058;46.344;17.786;2022-08-21T10:58:01;118336.50;;;-144.97;81.61
42415;BME280;28058;46.344;17.786;2022-08-21T11:00:43;118336.50;;;-144.97;81.16
42415;BME280;28058;46.344;17.786;2022-08-21T11:03:20;118336.50;;;-144.97;80.97
42415;BME280;28058;46.344;17.786;2022-08-21T11:05:57;118336.50;;;-144.97;79.61
42415;BME280;28058;46.344;17.786;2022-08-21T11:08:30;118336.50;;;-144.97;79.69
42415;BME280;28058;46.344;17.786;2022-08-21T11:11:10;118336.50;;;-144.97;77.20
42415;BME280;28058;46.344;17.786;2022-08-21T11:14:19;118336.50;;;-144.97;75.92
42415;BME280;28058;46.344;17.786;2022-08-21T11:17:18;118336.50;;;-144.97;76.16
42415;BME280;28058;46.344;17.786;2022-08-21T11:22:25;118336.50;;;-144.97;77.60
42415;BME280;28058;46.344;17.786;2022-08-21T11:25:14;118336.50;;;-144.97;76.01
42415;BME280;28058;46.344;17.786;2022-08-21T11:27:49;118336.50;;;-144.97;73.85
42415;BME280;28058;46.344;17.786;2022-08-21T11:30:17;118336.50;;;-144.97;72.08
42415;BME280;28058;46.344;17.786;2022-08-21T11:41:34;118336.50;;;-144.97;72.13
42415;BME280;28058;46.344;17.786;2022-08-21T11:44:18;118336.50;;;-144.97;71.30
42415;BME280;28058;46.344;17.786;2022-08-21T11:52:26;118336.50;;;-144.97;74.72
42415;BME280;28058;46.344;17.786;2022-08-21T11:55:12;118336.50;;;-144.97;73.17
42415;BME280;28058;46.344;17.786;2022-08-21T11:57:56;118336.50;;;-144.97;77.22
42415;BME280;28058;46.344;17.786;2022-08-21T12:03:09;118336.50;;;-144.97;75.82
42415;BME280;28058;46.344;17.786;2022-08-21T12:05:41;118336.50;;;-144.97;75.35
42415;BME280;28058;46.344;17.786;2022-08-21T12:10:42;118336.50;;;-144.97;72.23
42415;BME280;28058;46.344;17.786;2022-08-21T12:13:26;118336.50;;;-144.97;72.34
42415;BME280;28058;46.344;17.786;2022-08-21T12:16:24;118336.50;;;-144.97;71.95
42415;BME280;28058;46.344;17.786;2022-08-21T12:19:14;118336.50;;;-144.97;70.81
42415;BME280;28058;46.344;17.786;2022-08-21T12:26:56;118336.50;;;-144.97;66.47
42415;BME280;28058;46.344;17.786;2022-08-21T12:29:27;118336.50;;;-144.97;66.35
42415;BME280;28058;46.344;17.786;2022-08-21T12:31:56;118336.50;;;-144.97;64.66
42415;BME280;28058;46.344;17.786;2022-08-21T12:34:30;118336.50;;;-144.97;69.29
42415;BME280;28058;46.344;17.786;2022-08-21T12:37:04;118336.50;;;-144.97;69.51
42415;BME280;28058;46.344;17.786;2022-08-21T12:39:35;118336.50;;;-144.97;68.34
42415;BME280;28058;46.344;17.786;2022-08-21T12:42:15;118336.50;;;-144.97;67.90
42415;BME280;28058;46.344;17.786;2022-08-21T12:44:46;118336.50;;;-144.97;67.27
42415;BME280;28058;46.344;17.786;2022-08-21T12:50:05;118336.50;;;-144.97;66.14
42415;BME280;28058;46.344;17.786;2022-08-21T12:52:39;118336.50;;;-144.97;66.20
42415;BME280;28058;46.344;17.786;2022-08-21T12:55:14;118336.50;;;-144.97;65.68
42415;BME280;28058;46.344;17.786;2022-08-21T12:57:42;118336.50;;;-144.97;65.47
42415;BME280;28058;46.344;17.786;2022-08-21T13:00:12;118336.50;;;-144.97;62.96
42415;BME280;28058;46.344;17.786;2022-08-21T13:02:46;118336.50;;;-144.97;63.20
42415;BME280;28058;46.344;17.786;2022-08-21T13:07:51;118336.50;;;-144.97;64.61
42415;BME280;28058;46.344;17.786;2022-08-21T13:10:28;118336.50;;;-144.97;62.90
42415;BME280;28058;46.344;17.786;2022-08-21T13:12:58;118336.50;;;-144.97;63.74
42415;BME280;28058;46.344;17.786;2022-08-21T13:15:32;118336.50;;;-144.97;66.46
42415;BME280;28058;46.344;17.786;2022-08-21T13:18:02;118336.50;;;-144.97;64.80
42415;BME280;28058;46.344;17.786;2022-08-21T13:20:36;118336.50;;;-144.97;65.37
42415;BME280;28058;46.344;17.786;2022-08-21T13:23:28;118336.50;;;-144.97;65.86
42415;BME280;28058;46.344;17.786;2022-08-21T13:25:56;118336.50;;;-144.97;64.96
42415;BME280;28058;46.344;17.786;2022-08-21T13:28:24;118336.50;;;-144.97;65.04
42415;BME280;28058;46.344;17.786;2022-08-21T13:30:59;118336.50;;;-144.97;65.07
42415;BME280;28058;46.344;17.786;2022-08-21T13:33:29;118336.50;;;-144.97;65.19
42415;BME280;28058;46.344;17.786;2022-08-21T13:36:04;118336.50;;;-144.97;65.31
42415;BME280;28058;46.344;17.786;2022-08-21T13:38:35;118336.50;;;-144.97;65.01
42415;BME280;28058;46.344;17.786;2022-08-21T13:44:00;118336.50;;;-144.97;65.13